createdAt,value
2019-03-19T00:01:00.789Z,101352.69
2019-03-19T00:03:34.424Z,101353.94
2019-03-19T00:06:08.142Z,101344.55
2019-03-19T00:08:42.850Z,101357.38
2019-03-19T00:11:16.571Z,101355.24
2019-03-19T00:13:50.282Z,101364.19
2019-03-19T00:16:25.201Z,101364.19
2019-03-19T00:18:58.829Z,101363.38
2019-03-19T00:21:32.631Z,101368.55
2019-03-19T00:24:06.877Z,101372.80
2019-03-19T00:26:43.433Z,101378.28
2019-03-19T00:29:18.245Z,101381.30
2019-03-19T00:31:54.419Z,101386.88
2019-03-19T00:34:29.450Z,101379.57
2019-03-19T00:37:05.047Z,101378.30
2019-03-19T00:39:40.809Z,101375.31
2019-03-19T00:42:14.615Z,101377.43
2019-03-19T00:44:50.558Z,101372.63
2019-03-19T00:47:24.656Z,101377.35
2019-03-19T00:49:58.426Z,101375.56
2019-03-19T00:52:33.771Z,101374.70
2019-03-19T00:55:09.032Z,101388.88
2019-03-19T00:57:42.818Z,101391.05
2019-03-19T01:00:16.844Z,101391.04
2019-03-19T01:02:52.335Z,101394.88
2019-03-19T01:05:26.096Z,101397.89
2019-03-19T01:07:59.796Z,101395.75
2019-03-19T01:10:34.939Z,101403.92
2019-03-19T01:13:10.577Z,101404.36
2019-03-19T01:15:44.217Z,101399.69
2019-03-19T01:18:17.975Z,101408.21
2019-03-19T01:20:52.718Z,101394.05
2019-03-19T01:23:27.396Z,101389.73
2019-03-19T01:26:01.082Z,101401.73
2019-03-19T01:28:37.126Z,101397.84
2019-03-19T01:31:10.954Z,101394.77
2019-03-19T01:33:44.694Z,101393.05
2019-03-19T01:36:21.238Z,101401.17
2019-03-19T01:38:55.103Z,101404.97
2019-03-19T01:41:29.727Z,101400.29
2019-03-19T01:44:05.473Z,101397.25
2019-03-19T01:46:39.091Z,101398.14
2019-03-19T01:49:12.796Z,101397.83
2019-03-19T01:51:46.534Z,101398.22
2019-03-19T01:54:20.276Z,101399.52
2019-03-19T01:56:55.071Z,101400.34
2019-03-19T01:59:29.454Z,101400.41
2019-03-19T02:02:03.202Z,101402.97
2019-03-19T02:04:39.220Z,101402.11
2019-03-19T02:07:12.886Z,101406.83
2019-03-19T02:09:47.655Z,101412.87
2019-03-19T02:12:22.411Z,101415.43
2019-03-19T02:14:56.247Z,101420.13
2019-03-19T02:17:30.119Z,101427.39
2019-03-19T02:20:05.843Z,101424.00
2019-03-19T02:22:40.805Z,101421.48
2019-03-19T02:25:20.223Z,101424.03
2019-03-19T02:27:56.390Z,101428.29
2019-03-19T02:30:31.583Z,101430.81
2019-03-19T02:33:06.390Z,101434.70
2019-03-19T02:35:41.905Z,101429.59
2019-03-19T02:38:15.546Z,101431.27
2019-03-19T02:40:49.282Z,101432.98
2019-03-19T02:43:23.940Z,101441.52
2019-03-19T02:45:59.631Z,101443.65
2019-03-19T02:48:33.549Z,101440.23
2019-03-19T02:51:08.807Z,101445.79
2019-03-19T02:53:43.686Z,101445.83
2019-03-19T02:56:31.739Z,101448.82
2019-03-19T02:58:54.768Z,101447.14
2019-03-19T03:01:28.452Z,101453.14
2019-03-19T03:04:02.566Z,101453.97
2019-03-19T03:06:36.333Z,101453.12
2019-03-19T03:09:10.062Z,101461.66
2019-03-19T03:11:43.909Z,101467.63
2019-03-19T03:14:17.655Z,101477.89
2019-03-19T03:16:51.363Z,101479.17
2019-03-19T03:19:27.383Z,101481.30
2019-03-19T03:22:03.342Z,101487.28
2019-03-19T03:24:39.204Z,101488.11
2019-03-19T03:27:14.093Z,101503.03
2019-03-19T03:29:48.859Z,101508.59
2019-03-19T03:32:26.244Z,101512.44
2019-03-19T03:35:01.362Z,101508.16
2019-03-19T03:37:36.269Z,101512.41
2019-03-19T03:40:12.095Z,101508.14
2019-03-19T03:42:46.048Z,101509.88
2019-03-19T03:45:20.072Z,101506.45
2019-03-19T03:47:53.869Z,101510.27
2019-03-19T03:50:27.515Z,101508.14
2019-03-19T03:53:03.049Z,101517.95
2019-03-19T03:55:36.789Z,101516.25
2019-03-19T03:58:10.912Z,101522.24
2019-03-19T04:00:45.703Z,101523.11
2019-03-19T04:03:20.429Z,101532.05
2019-03-19T04:05:56.072Z,101536.75
2019-03-19T04:08:31.267Z,101538.87
2019-03-19T04:11:05.043Z,101543.16
2019-03-19T04:13:39.164Z,101546.16
2019-03-19T04:16:15.220Z,101547.42
2019-03-19T04:18:50.378Z,101547.41
2019-03-19T04:21:25.888Z,101556.39
2019-03-19T04:23:59.769Z,101561.94
2019-03-19T04:26:33.824Z,101561.52
2019-03-19T04:29:08.744Z,101568.78
2019-03-19T04:31:42.893Z,101567.47
2019-03-19T04:34:16.670Z,101564.93
2019-03-19T04:36:50.883Z,101568.75
2019-03-19T04:39:25.711Z,101564.05
2019-03-19T04:42:02.064Z,101568.77
2019-03-19T04:44:39.981Z,101579.44
2019-03-19T04:47:13.987Z,101582.85
2019-03-19T04:49:47.821Z,101581.14
2019-03-19T04:52:21.382Z,101584.12
2019-03-19T04:54:55.217Z,101586.67
2019-03-19T04:57:28.918Z,101590.94
2019-03-19T05:00:02.786Z,101588.81
2019-03-19T05:02:38.388Z,101592.64
2019-03-19T05:05:12.719Z,101585.81
2019-03-19T05:07:46.503Z,101589.23
2019-03-19T05:10:22.052Z,101596.48
2019-03-19T05:12:56.134Z,101588.38
2019-03-19T05:15:33.352Z,101590.94
2019-03-19T05:18:07.027Z,101596.50
2019-03-19T05:20:40.799Z,101598.20
2019-03-19T05:23:14.806Z,101599.91
2019-03-19T05:25:50.067Z,101598.20
2019-03-19T05:28:23.788Z,101606.33
2019-03-19T05:30:57.524Z,101602.90
2019-03-19T05:33:32.733Z,101601.20
2019-03-19T05:36:06.407Z,101608.02
2019-03-19T05:38:41.146Z,101614.42
2019-03-19T05:41:16.627Z,101616.55
2019-03-19T05:43:53.945Z,101619.56
2019-03-19T05:46:28.532Z,101617.86
2019-03-19T05:49:02.589Z,101620.81
2019-03-19T05:51:36.636Z,101622.53
2019-03-19T05:54:10.609Z,101614.42
2019-03-19T05:56:45.736Z,101624.20
2019-03-19T05:59:20.424Z,101620.79
2019-03-19T06:01:55.293Z,101620.64
2019-03-19T06:04:30.127Z,101633.93
2019-03-19T06:07:03.882Z,101633.37
2019-03-19T06:09:38.834Z,101632.59
2019-03-19T06:12:12.505Z,101643.30
2019-03-19T06:14:47.901Z,101648.50
2019-03-19T06:17:22.868Z,101652.78
2019-03-19T06:19:57.765Z,101654.89
2019-03-19T06:22:32.925Z,101662.12
2019-03-19T06:25:07.525Z,101668.09
2019-03-19T06:27:43.198Z,101671.89
2019-03-19T06:30:18.002Z,101672.23
2019-03-19T06:32:52.774Z,101670.44
2019-03-19T06:35:26.676Z,101686.23
2019-03-19T06:38:00.313Z,101683.91
2019-03-19T06:40:34.495Z,101682.78
2019-03-19T06:43:08.895Z,101693.41
2019-03-19T06:45:44.675Z,101696.02
2019-03-19T06:48:18.369Z,101696.80
2019-03-19T06:50:52.145Z,101701.98
2019-03-19T06:53:25.889Z,101701.07
2019-03-19T06:56:01.049Z,101694.67
2019-03-19T06:58:34.662Z,101702.72
2019-03-19T07:01:08.249Z,101707.27
2019-03-19T07:03:41.911Z,101720.03
2019-03-19T07:06:15.506Z,101721.02
2019-03-19T07:08:50.365Z,101722.19
2019-03-19T07:11:27.241Z,101724.63
2019-03-19T07:14:02.072Z,101733.39
2019-03-19T07:16:35.881Z,101731.50
2019-03-19T07:19:09.902Z,101737.34
2019-03-19T07:21:43.772Z,101738.52
2019-03-19T07:24:17.702Z,101745.34
2019-03-19T07:26:51.455Z,101739.11
2019-03-19T07:29:25.248Z,101736.80
2019-03-19T07:32:04.173Z,101746.06
2019-03-19T07:34:37.815Z,101746.10
2019-03-19T07:37:13.403Z,101740.78
2019-03-19T07:39:48.951Z,101745.95
2019-03-19T07:42:24.501Z,101737.81
2019-03-19T07:44:58.206Z,101741.66
2019-03-19T07:47:32.234Z,101754.52
2019-03-19T07:50:07.180Z,101754.98
2019-03-19T07:52:41.165Z,101756.90
2019-03-19T07:55:15.382Z,101758.89
2019-03-19T07:57:49.038Z,101765.66
2019-03-19T08:00:22.970Z,101768.20
2019-03-19T08:02:56.703Z,101774.78
2019-03-19T08:05:33.466Z,101779.02
2019-03-19T08:08:08.129Z,101772.31
2019-03-19T08:10:42.938Z,101777.12
2019-03-19T08:13:16.787Z,101782.25
2019-03-19T08:15:52.314Z,101780.23
2019-03-19T08:18:26.046Z,101789.30
2019-03-19T08:20:59.696Z,101790.53
2019-03-19T08:23:33.712Z,101806.30
2019-03-19T08:26:19.809Z,101791.64
2019-03-19T08:28:55.485Z,101797.75
2019-03-19T08:31:31.621Z,101806.29
2019-03-19T08:34:06.022Z,101804.19
2019-03-19T08:36:39.845Z,101802.39
2019-03-19T08:39:15.191Z,101798.89
2019-03-19T08:41:49.057Z,101792.92
2019-03-19T08:44:27.649Z,101793.72
2019-03-19T08:46:58.147Z,101792.50
2019-03-19T08:49:31.759Z,101804.24
2019-03-19T08:52:07.302Z,101801.97
2019-03-19T08:54:41.412Z,101800.92
2019-03-19T08:57:15.267Z,101804.98
2019-03-19T08:59:48.985Z,101808.53
2019-03-19T09:02:24.682Z,101811.41
2019-03-19T09:05:02.875Z,101821.45
2019-03-19T09:07:35.682Z,101822.70
2019-03-19T09:10:10.400Z,101827.07
2019-03-19T09:12:48.136Z,101824.00
2019-03-19T09:15:21.464Z,101832.77
2019-03-19T09:17:56.736Z,101835.75
2019-03-19T09:20:30.827Z,101834.61
2019-03-19T09:23:04.500Z,101829.66
2019-03-19T09:25:38.880Z,101835.54
2019-03-19T09:28:12.477Z,101833.86
2019-03-19T09:30:46.183Z,101838.77
2019-03-19T09:33:20.022Z,101834.52
2019-03-19T09:35:57.234Z,101845.98
2019-03-19T09:38:32.005Z,101850.27
2019-03-19T09:41:06.188Z,101847.47
2019-03-19T09:43:41.770Z,101843.95
2019-03-19T09:46:15.546Z,101840.53
2019-03-19T09:48:50.717Z,101844.12
2019-03-19T09:51:24.424Z,101839.44
2019-03-19T09:53:59.671Z,101839.18
2019-03-19T09:56:34.549Z,101852.95
2019-03-19T09:59:08.701Z,101845.33
2019-03-19T10:01:43.508Z,101854.29
2019-03-19T10:04:17.762Z,101853.31
2019-03-19T10:06:53.923Z,101850.33
2019-03-19T10:09:27.942Z,101854.73
2019-03-19T10:12:02.766Z,101848.34
2019-03-19T10:14:37.696Z,101856.84
2019-03-19T10:17:14.488Z,101865.53
2019-03-19T10:19:48.756Z,101859.79
2019-03-19T10:22:23.525Z,101863.45
2019-03-19T10:25:00.223Z,101863.07
2019-03-19T10:27:35.130Z,101860.28
2019-03-19T10:30:15.992Z,101860.61
2019-03-19T10:32:49.945Z,101859.87
2019-03-19T10:35:25.157Z,101856.36
2019-03-19T10:37:59.468Z,101860.87
2019-03-19T10:40:33.191Z,101868.48
2019-03-19T10:43:07.460Z,101861.36
2019-03-19T10:45:41.285Z,101862.77
2019-03-19T10:48:15.284Z,101871.98
2019-03-19T10:50:49.149Z,101868.80
2019-03-19T10:53:22.825Z,101877.80
2019-03-19T10:55:56.631Z,101870.68
2019-03-19T10:58:31.754Z,101869.72
2019-03-19T11:01:07.526Z,101865.32
2019-03-19T11:03:41.357Z,101877.30
2019-03-19T11:06:16.885Z,101873.22
2019-03-19T11:08:50.789Z,101872.02
2019-03-19T11:11:26.778Z,101879.48
2019-03-19T11:14:00.859Z,101884.22
2019-03-19T11:16:34.511Z,101884.63
2019-03-19T11:19:09.740Z,101882.63
2019-03-19T11:21:43.528Z,101878.00
2019-03-19T11:24:20.594Z,101875.95
2019-03-19T11:26:56.140Z,101880.48
2019-03-19T11:29:29.814Z,101877.42
2019-03-19T11:32:04.748Z,101867.37
2019-03-19T11:34:39.023Z,101870.26
2019-03-19T11:37:13.252Z,101876.48
2019-03-19T11:39:48.867Z,101876.69
2019-03-19T11:42:22.670Z,101882.30
2019-03-19T11:44:58.405Z,101879.62
2019-03-19T11:47:32.524Z,101891.56
2019-03-19T11:50:08.846Z,101898.37
2019-03-19T11:52:44.035Z,101896.80
2019-03-19T11:55:18.138Z,101897.54
2019-03-19T11:57:52.180Z,101909.81
2019-03-19T12:00:39.792Z,101913.23
2019-03-19T12:03:16.518Z,101909.45
2019-03-19T12:05:51.708Z,101908.23
2019-03-19T12:08:26.449Z,101906.53
2019-03-19T12:11:00.094Z,101908.78
2019-03-19T12:13:34.462Z,101911.18
2019-03-19T12:16:08.426Z,101909.95
2019-03-19T12:18:42.058Z,101912.48
2019-03-19T12:21:16.094Z,101910.55
2019-03-19T12:23:49.688Z,101903.59
2019-03-19T12:26:23.382Z,101905.30
2019-03-19T12:28:58.256Z,101907.44
2019-03-19T12:31:32.138Z,101909.64
2019-03-19T12:34:05.743Z,101911.50
2019-03-19T12:36:39.655Z,101906.58
2019-03-19T12:39:15.426Z,101909.14
2019-03-19T12:41:49.318Z,101905.80
2019-03-19T12:44:23.156Z,101899.64
2019-03-19T12:46:58.589Z,101899.30
2019-03-19T12:49:32.307Z,101897.94
2019-03-19T12:52:06.521Z,101898.64
2019-03-19T12:54:41.051Z,101894.23
2019-03-19T12:57:14.827Z,101890.80
2019-03-19T12:59:48.610Z,101889.55
2019-03-19T13:02:22.639Z,101891.19
2019-03-19T13:04:56.966Z,101894.59
2019-03-19T13:07:31.810Z,101895.39
2019-03-19T13:10:07.219Z,101890.70
2019-03-19T13:12:41.013Z,101899.05
2019-03-19T13:15:15.507Z,101894.80
2019-03-19T13:17:49.845Z,101897.65
2019-03-19T13:20:24.110Z,101896.14
2019-03-19T13:22:59.963Z,101898.34
2019-03-19T13:25:35.818Z,101896.56
2019-03-19T13:28:09.832Z,101896.59
2019-03-19T13:30:45.455Z,101896.12
2019-03-19T13:33:19.046Z,101889.80
2019-03-19T13:35:55.966Z,101897.49
2019-03-19T13:38:30.113Z,101896.02
2019-03-19T13:41:05.016Z,101901.95
2019-03-19T13:44:12.012Z,101908.52
2019-03-19T13:46:45.980Z,101914.63
2019-03-19T13:49:19.740Z,101923.57
2019-03-19T13:51:53.808Z,101923.84
2019-03-19T13:54:28.945Z,101925.75
2019-03-19T13:57:02.598Z,101920.27
2019-03-19T13:59:37.546Z,101923.50
2019-03-19T14:02:12.470Z,101927.25
2019-03-19T14:04:46.313Z,101941.80
2019-03-19T14:07:21.370Z,101939.61
2019-03-19T14:09:56.597Z,101946.60
2019-03-19T14:12:33.092Z,101940.09
2019-03-19T14:15:32.359Z,101941.42
2019-03-19T14:18:06.895Z,101938.55
2019-03-19T14:20:50.631Z,101939.76
2019-03-19T14:23:25.447Z,101938.05
2019-03-19T14:26:11.382Z,101931.93
2019-03-19T14:28:59.208Z,101933.88
2019-03-19T14:31:41.498Z,101929.59
2019-03-19T14:34:16.141Z,101932.48
2019-03-19T14:36:50.319Z,101930.83
2019-03-19T14:39:24.219Z,101931.91
2019-03-19T14:41:57.852Z,101939.16
2019-03-19T14:44:31.957Z,101939.44
2019-03-19T14:47:05.680Z,101942.17
2019-03-19T14:49:47.039Z,101943.89
2019-03-19T14:52:14.632Z,101946.36
2019-03-19T14:54:48.278Z,101949.72
2019-03-19T14:57:21.910Z,101953.73
2019-03-19T14:59:55.624Z,101953.28
2019-03-19T15:02:29.488Z,101952.27
2019-03-19T15:05:03.068Z,101950.61
2019-03-19T15:07:36.654Z,101943.44
2019-03-19T15:10:13.428Z,101944.78
2019-03-19T15:12:47.228Z,101945.96
2019-03-19T15:15:20.955Z,101954.48
2019-03-19T15:17:54.938Z,101952.78
2019-03-19T15:20:29.185Z,101960.30
2019-03-19T15:23:02.876Z,101959.13
2019-03-19T15:25:36.431Z,101958.29
2019-03-19T15:28:10.003Z,101955.50
2019-03-19T15:30:43.673Z,101961.51
2019-03-19T15:33:17.574Z,101961.09
2019-03-19T15:35:51.456Z,101955.74
2019-03-19T15:38:25.044Z,101962.67
2019-03-19T15:40:58.690Z,101953.69
2019-03-19T15:43:32.278Z,101955.10
2019-03-19T15:46:05.921Z,101960.39
2019-03-19T15:48:40.183Z,101959.34
2019-03-19T15:51:14.216Z,101959.94
2019-03-19T15:53:48.087Z,101962.56
2019-03-19T15:56:21.714Z,101964.16
2019-03-19T15:58:55.586Z,101959.66
2019-03-19T16:01:39.929Z,101967.39
2019-03-19T16:04:04.956Z,101968.60
2019-03-19T16:06:38.570Z,101969.91
2019-03-19T16:09:12.238Z,101968.77
2019-03-19T16:11:45.830Z,101972.28
2019-03-19T16:14:19.467Z,101977.11
2019-03-19T16:16:53.139Z,101983.63
2019-03-19T16:19:26.777Z,101984.95
2019-03-19T16:22:00.343Z,101989.37
2019-03-19T16:24:34.035Z,101989.03
2019-03-19T16:27:08.169Z,101995.34
2019-03-19T16:29:41.804Z,101995.09
2019-03-19T16:32:15.446Z,101991.97
2019-03-19T16:34:55.371Z,101996.00
2019-03-19T16:37:28.918Z,101999.45
2019-03-19T16:40:02.543Z,101997.59
2019-03-19T16:42:36.815Z,102002.03
2019-03-19T16:45:11.397Z,102006.27
2019-03-19T16:47:45.027Z,102008.75
2019-03-19T16:50:18.991Z,102010.38
2019-03-19T16:52:52.562Z,102005.56
2019-03-19T16:55:26.325Z,102005.56
2019-03-19T16:57:59.964Z,102017.52
2019-03-19T17:00:34.049Z,102018.27
2019-03-19T17:03:10.495Z,102025.34
2019-03-19T17:05:44.602Z,102029.26
2019-03-19T17:08:19.258Z,102030.70
2019-03-19T17:10:52.895Z,102039.34
2019-03-19T17:13:26.564Z,102033.53
2019-03-19T17:16:00.574Z,102037.02
2019-03-19T17:18:34.194Z,102037.52
2019-03-19T17:21:08.110Z,102042.05
2019-03-19T17:23:42.542Z,102048.06
2019-03-19T17:26:16.401Z,102049.93
2019-03-19T17:28:50.106Z,102051.75
2019-03-19T17:31:25.115Z,102057.55
2019-03-19T17:33:59.018Z,102062.08
2019-03-19T17:36:32.566Z,102057.50
2019-03-19T17:39:08.878Z,102064.54
2019-03-19T17:41:42.796Z,102067.25
2019-03-19T17:44:16.673Z,102068.17
2019-03-19T17:46:50.245Z,102066.84
2019-03-19T17:49:24.154Z,102070.41
2019-03-19T17:51:57.797Z,102078.71
2019-03-19T17:54:31.403Z,102076.13
2019-03-19T17:57:05.006Z,102076.65
2019-03-19T17:59:38.642Z,102082.70
2019-03-19T18:02:23.307Z,102085.33
2019-03-19T18:04:47.748Z,102092.70
2019-03-19T18:07:21.297Z,102099.20
2019-03-19T18:09:54.969Z,102093.69
2019-03-19T18:12:30.719Z,102099.72
2019-03-19T18:15:04.493Z,102098.08
2019-03-19T18:17:38.256Z,102102.39
2019-03-19T18:20:13.644Z,102105.00
2019-03-19T18:22:48.177Z,102110.58
2019-03-19T18:25:21.994Z,102114.05
2019-03-19T18:27:55.753Z,102119.20
2019-03-19T18:30:29.380Z,102122.64
2019-03-19T18:33:03.104Z,102115.80
2019-03-19T18:35:36.695Z,102117.09
2019-03-19T18:38:10.910Z,102121.00
2019-03-19T18:40:44.906Z,102127.90
2019-03-19T18:43:19.219Z,102129.17
2019-03-19T18:45:57.012Z,102133.06
2019-03-19T18:48:29.973Z,102132.22
2019-03-19T18:51:03.584Z,102133.52
2019-03-19T18:53:37.342Z,102136.53
2019-03-19T18:56:11.567Z,102136.09
2019-03-19T18:58:46.090Z,102139.54
2019-03-19T19:01:21.058Z,102142.53
2019-03-19T19:03:56.714Z,102140.84
2019-03-19T19:06:31.604Z,102141.76
2019-03-19T19:09:07.356Z,102145.20
2019-03-19T19:11:42.290Z,102157.21
2019-03-19T19:14:16.495Z,102158.52
2019-03-19T19:16:50.293Z,102165.00
2019-03-19T19:19:24.492Z,102168.48
2019-03-19T19:21:59.941Z,102172.37
2019-03-19T19:24:34.403Z,102170.28
2019-03-19T19:27:08.373Z,102178.45
2019-03-19T19:29:43.300Z,102179.34
2019-03-19T19:32:17.430Z,102181.92
2019-03-19T19:34:51.332Z,102184.95
2019-03-19T19:37:25.205Z,102190.09
2019-03-19T19:39:59.075Z,102187.98
2019-03-19T19:42:33.821Z,102192.70
2019-03-19T19:45:08.666Z,102192.25
2019-03-19T19:47:43.649Z,102193.09
2019-03-19T19:50:17.805Z,102193.08
2019-03-19T19:52:51.937Z,102202.05
2019-03-19T19:55:26.007Z,102204.58
2019-03-19T19:58:03.083Z,102214.86
2019-03-19T20:00:36.998Z,102208.84
2019-03-19T20:03:12.957Z,102214.81
2019-03-19T20:05:48.468Z,102211.41
2019-03-19T20:08:22.113Z,102216.94
2019-03-19T20:10:56.512Z,102214.77
2019-03-19T20:13:31.461Z,102228.84
2019-03-19T20:16:06.479Z,102233.09
2019-03-19T20:18:43.483Z,102236.92
2019-03-19T20:21:17.940Z,102238.20
2019-03-19T20:23:54.392Z,102240.72
2019-03-19T20:26:28.784Z,102238.97
2019-03-19T20:29:04.663Z,102239.33
2019-03-19T20:31:38.808Z,102235.45
2019-03-19T20:34:13.048Z,102237.53
2019-03-19T20:36:49.355Z,102243.93
2019-03-19T20:39:23.446Z,102250.29
2019-03-19T20:41:57.232Z,102254.52
2019-03-19T20:44:31.814Z,102258.77
2019-03-19T20:47:05.978Z,102257.84
2019-03-19T20:49:47.585Z,102258.23
2019-03-19T20:52:20.856Z,102256.87
2019-03-19T20:54:55.715Z,102260.67
2019-03-19T20:57:29.740Z,102254.18
2019-03-19T21:00:03.548Z,102264.76
2019-03-19T21:02:37.826Z,102261.75
2019-03-19T21:05:13.302Z,102266.43
2019-03-19T21:08:14.622Z,102271.98
2019-03-19T21:10:48.766Z,102275.33
2019-03-19T21:13:23.058Z,102271.02
2019-03-19T21:15:57.303Z,102278.63
2019-03-19T21:18:31.175Z,102286.73
2019-03-19T21:21:07.838Z,102280.69
2019-03-19T21:23:41.497Z,102291.30
2019-03-19T21:26:16.027Z,102295.48
2019-03-19T21:28:51.252Z,102297.20
2019-03-19T21:31:26.964Z,102302.30
2019-03-19T21:34:00.801Z,102298.83
2019-03-19T21:36:34.913Z,102302.27
2019-03-19T21:39:11.164Z,102303.08
2019-03-19T21:41:44.957Z,102305.48
2019-03-19T21:44:18.666Z,102308.45
2019-03-19T21:46:53.222Z,102309.66
2019-03-19T21:49:27.543Z,102306.19
2019-03-19T21:52:01.720Z,102309.50
2019-03-19T21:54:35.743Z,102308.63
2019-03-19T21:57:09.545Z,102308.59
2019-03-19T21:59:44.964Z,102309.31
2019-03-19T22:02:18.848Z,102312.76
2019-03-19T22:04:52.533Z,102315.01
2019-03-19T22:07:26.496Z,102314.90
2019-03-19T22:10:00.102Z,102313.84
2019-03-19T22:12:33.766Z,102313.46
2019-03-19T22:15:12.908Z,102312.95
2019-03-19T22:17:46.786Z,102315.02
2019-03-19T22:20:20.628Z,102311.19
2019-03-19T22:22:54.478Z,102312.50
2019-03-19T22:25:30.746Z,102307.77
2019-03-19T22:28:04.728Z,102309.36
2019-03-19T22:30:38.505Z,102311.02
2019-03-19T22:33:13.292Z,102310.08
2019-03-19T22:35:47.037Z,102307.16
2019-03-19T22:38:21.147Z,102313.16
2019-03-19T22:40:55.023Z,102317.42
2019-03-19T22:43:29.960Z,102321.11
2019-03-19T22:46:05.919Z,102316.60
2019-03-19T22:48:42.891Z,102316.52
2019-03-19T22:51:16.892Z,102316.80
2019-03-19T22:53:52.326Z,102316.25
2019-03-19T22:56:25.998Z,102319.97
2019-03-19T22:58:59.859Z,102326.41
2019-03-19T23:01:33.541Z,102320.47
2019-03-19T23:04:08.413Z,102325.97
2019-03-19T23:06:42.015Z,102329.00
2019-03-19T23:09:15.707Z,102327.63
2019-03-19T23:11:51.154Z,102328.45
2019-03-19T23:14:25.012Z,102331.02
2019-03-19T23:16:58.821Z,102325.58
2019-03-19T23:19:32.613Z,102329.36
2019-03-19T23:22:06.978Z,102323.02
2019-03-19T23:24:40.805Z,102311.14
2019-03-19T23:27:14.719Z,102309.84
2019-03-19T23:29:48.317Z,102313.77
2019-03-19T23:32:22.155Z,102320.16
2019-03-19T23:34:57.510Z,102317.63
2019-03-19T23:37:31.157Z,102320.20
2019-03-19T23:40:05.204Z,102323.56
2019-03-19T23:42:40.617Z,102326.13
2019-03-19T23:45:15.816Z,102321.01
2019-03-19T23:47:49.537Z,102320.55
2019-03-19T23:50:23.384Z,102320.14
2019-03-19T23:52:57.027Z,102324.39
2019-03-19T23:55:32.540Z,102326.55
2019-03-19T23:58:07.196Z,102328.30
